SKBOSKPE

Guest
Details From SKBO - Bogota - El Dorado Intl
To SKPE - MATECANA
Flight Number -
Tags generated
Created
Modified
Stats Distance 96 nm / 177 km
Max Altitude 9,900 ft / 3,018 m
Waypoints 3
Social Downloads 16
Likes 0
Share VATSIM

Download

Looking for another format? Having issues loading an existing format? Contact us
Advertisement - Login to hide

Notes

Basic altitude profile: - Ascent Rate: 2500ft/min - Ascent Speed: 250kts - Cruise Altitude: 35000ft - Cruise Speed: 420kts - Descent Rate: 1500ft/min - Descent Speed: 250kts Options: - Use NATs: yes - Use PACOTS: yes - Use low airways: yes - Use high airways: yes

Route

SKBO MECHI SKPE

ID Type Via Altitude Latitude Longitude Leg Dist Tot Dist Heading (true) Name
O SKBO APT - 0 ft / 0 m 4.70159˚ -74.14695˚ - 0 nm - Bogota - El Dorado Intl
MECHI FIX - 9,900 ft / 3,018 m 4.72667˚ -74.61056˚ 27 nm 27 nm 273° / 273° -
O SKPE APT - 0 ft / 0 m 4.81267˚ -75.73952˚ 67 nm 95 nm 274° / 274° MATECANA

Altitude Profile

Advertisement - Login to hide

SKBO

Details ICAO SKBO (BOG)
Name Bogota - El Dorado Intl
Region Colombia
Timezone America/Bogota (UTC-5.0)
Stats Elevation 8,361 ft / 2,548 m (AMSL)
Location 4.701594° -74.146946°
Runways 2
Magnetic Variation 7.267° W

METAR

SKBO 160600Z 33004KT 9999 FEW025 08/07 A3032

Decode

TAF

Not found

Departure Runways

ID Width Length Bearing (true) Bearing (mag) Surface Threshold Offset Overrun Length
13L 148 ft / 45 m 12,482 ft / 3,804 m 127.21° 134.48° Asphalt 0 ft / 0 m 0 ft / 0 m
13R 148 ft / 45 m 12,494 ft / 3,808 m 127.23° 134.50° Asphalt 0 ft / 0 m 200 ft / 61 m
31L 148 ft / 45 m 12,494 ft / 3,808 m 307.23° 314.50° Asphalt 0 ft / 0 m 190 ft / 58 m
31R 148 ft / 45 m 12,482 ft / 3,804 m 307.21° 314.48° Asphalt 0 ft / 0 m 0 ft / 0 m

SKPE

Details ICAO SKPE (PEI)
Name MATECANA
Region Colombia
Timezone America/Bogota (UTC-5.0)
Stats Elevation 4,416 ft / 1,346 m (AMSL)
Location 4.812673° -75.739518°
Runways 1
Magnetic Variation 6.216° W

METAR

SKPE 160600Z 10005KT 9999 FEW015 20/18 A3003

Decode

TAF

Not found

Destination Runways

ID Width Length Bearing (true) Bearing (mag) Surface Threshold Offset Overrun Length
08 148 ft / 45 m 6,628 ft / 2,020 m 72.24° 78.46° Asphalt 0 ft / 0 m 0 ft / 0 m
26 148 ft / 45 m 6,628 ft / 2,020 m 252.24° 258.46° Asphalt 0 ft / 0 m 0 ft / 0 m

Popular Alternatives